LHR weather

London Heathrow Airport
London, England, United Kingdom

Public forecast

Using degrees Celsius for public forecast. Weather courtesy of forecast.io.

METAR (pilot weather report)

Retrieved 2017/06/28 22:20 UTC (0 seconds ago):

EGLL 282220Z AUTO 35005KT 310V030 9999 FEW016 13/10 Q0996 NOSIG

TAF (pilot weather forecast)

Retrieved 2017/06/28 18:17 UTC (4 hours ago):

TAF EGLL 281658Z 2818/2924 35006KT 9999 BKN012 PROB40 TEMPO 2818/2823 BKN020 BECMG 2908/2911 25010KT BKN030 PROB30 TEMPO 2915/2919 7000 SHRA